createdAt,value
2022-07-28T00:00:41.566Z,11.70
2022-07-28T00:05:46.440Z,11.70
2022-07-28T00:10:53.240Z,11.80
2022-07-28T00:15:56.575Z,11.90
2022-07-28T00:21:00.423Z,12.00
2022-07-28T00:26:03.860Z,12.10
2022-07-28T00:31:10.988Z,12.10
2022-07-28T00:36:15.254Z,12.20
2022-07-28T00:41:20.426Z,12.20
2022-07-28T00:46:24.949Z,12.20
2022-07-28T00:51:29.180Z,12.30
2022-07-28T00:56:34.501Z,12.30
2022-07-28T01:01:37.848Z,12.40
2022-07-28T01:06:46.181Z,12.40
2022-07-28T01:12:01.180Z,12.40
2022-07-28T01:17:12.268Z,12.40
2022-07-28T01:22:22.613Z,12.40
2022-07-28T01:27:51.647Z,12.40
2022-07-28T01:33:05.480Z,12.40
2022-07-28T01:38:12.200Z,12.40
2022-07-28T01:43:21.599Z,12.40
2022-07-28T01:48:25.961Z,12.40
2022-07-28T01:53:37.583Z,12.50
2022-07-28T01:58:43.835Z,12.50
2022-07-28T02:03:48.400Z,12.50
2022-07-28T02:08:54.020Z,12.60
2022-07-28T02:13:58.780Z,12.60
2022-07-28T02:19:03.220Z,12.60
2022-07-28T02:24:08.339Z,12.70
2022-07-28T02:29:33.634Z,12.70
2022-07-28T02:34:39.521Z,12.70
2022-07-28T02:39:59.862Z,12.70
2022-07-28T02:45:09.022Z,12.70
2022-07-28T02:50:15.125Z,12.80
2022-07-28T02:55:19.106Z,12.80
2022-07-28T03:00:23.312Z,12.80
2022-07-28T03:05:26.829Z,12.80
2022-07-28T03:10:34.226Z,12.80
2022-07-28T03:15:40.906Z,12.80
2022-07-28T03:20:44.099Z,12.90
2022-07-28T03:25:52.800Z,12.90
2022-07-28T03:31:02.810Z,12.90
2022-07-28T03:36:14.700Z,13.00
2022-07-28T03:41:21.679Z,12.90
2022-07-28T03:46:26.402Z,13.00
2022-07-28T03:51:30.239Z,13.00
2022-07-28T03:56:33.420Z,13.00
2022-07-28T04:01:36.786Z,13.10
2022-07-28T04:06:40.402Z,13.20
2022-07-28T04:11:44.222Z,13.20
2022-07-28T04:16:47.591Z,13.40
2022-07-28T04:21:50.959Z,13.50
2022-07-28T04:26:54.339Z,13.70
2022-07-28T04:31:57.664Z,13.80
2022-07-28T04:37:00.937Z,13.90
2022-07-28T04:42:04.848Z,13.90
2022-07-28T04:47:08.149Z,14.10
2022-07-28T04:52:12.080Z,14.70
2022-07-28T04:57:15.509Z,15.70
2022-07-28T05:02:19.204Z,16.50
2022-07-28T05:07:22.461Z,16.70
2022-07-28T05:12:25.701Z,16.50
2022-07-28T05:17:29.153Z,16.30
2022-07-28T05:22:47.480Z,15.90
2022-07-28T05:27:51.381Z,15.60
2022-07-28T05:32:54.919Z,15.50
2022-07-28T05:37:58.262Z,15.40
2022-07-28T05:43:01.900Z,15.40
2022-07-28T05:48:05.480Z,15.50
2022-07-28T05:53:08.720Z,15.50
2022-07-28T05:58:12.966Z,15.50
2022-07-28T06:03:16.281Z,15.70
2022-07-28T06:08:19.469Z,15.90
2022-07-28T06:13:25.861Z,16.00
2022-07-28T06:18:29.360Z,16.20
2022-07-28T06:23:32.336Z,16.40
2022-07-28T06:28:36.347Z,16.70
2022-07-28T06:33:39.551Z,17.00
2022-07-28T06:38:42.961Z,17.40
2022-07-28T06:43:46.781Z,17.50
2022-07-28T06:48:50.053Z,17.80
2022-07-28T06:53:53.761Z,18.10
2022-07-28T06:58:57.041Z,18.40
2022-07-28T07:04:00.202Z,18.60
2022-07-28T07:09:03.341Z,18.80
2022-07-28T07:14:06.461Z,19.00
2022-07-28T07:19:15.449Z,19.20
2022-07-28T07:24:19.757Z,19.60
2022-07-28T07:29:25.844Z,20.10
2022-07-28T07:34:33.717Z,20.50
2022-07-28T07:39:37.600Z,20.40
2022-07-28T07:44:40.896Z,19.80
2022-07-28T07:49:53.208Z,19.50
2022-07-28T07:54:56.461Z,19.30
2022-07-28T07:59:59.798Z,19.80
2022-07-28T08:05:02.979Z,20.40
2022-07-28T08:10:06.840Z,20.70
2022-07-28T08:15:10.441Z,20.80
2022-07-28T08:20:14.070Z,21.10
2022-07-28T08:25:17.782Z,20.80
2022-07-28T08:30:22.384Z,21.10
2022-07-28T08:35:33.450Z,21.10
2022-07-28T08:40:42.548Z,20.80
2022-07-28T08:45:52.539Z,20.70
2022-07-28T08:51:03.037Z,21.30
2022-07-28T08:56:10.459Z,21.60
2022-07-28T09:01:14.217Z,22.00
2022-07-28T09:06:22.813Z,22.10
2022-07-28T09:11:29.100Z,22.10
2022-07-28T09:16:33.006Z,21.90
2022-07-28T09:21:37.059Z,21.50
2022-07-28T09:27:00.236Z,21.50
2022-07-28T09:32:04.710Z,21.70
2022-07-28T09:37:26.818Z,21.50
2022-07-28T09:42:47.101Z,21.30
2022-07-28T09:47:51.619Z,21.40
2022-07-28T09:52:55.182Z,21.70
2022-07-28T09:57:58.560Z,22.00
2022-07-28T10:03:02.267Z,22.00
2022-07-28T10:08:07.101Z,22.20
2022-07-28T10:13:10.641Z,22.20
2022-07-28T10:18:14.044Z,22.90
2022-07-28T10:23:19.491Z,23.50
2022-07-28T10:28:23.820Z,23.10
2022-07-28T10:33:32.141Z,22.90
2022-07-28T10:38:37.925Z,22.60
2022-07-28T10:43:42.943Z,22.90
2022-07-28T10:48:49.883Z,23.30
2022-07-28T10:54:16.941Z,23.30
2022-07-28T10:59:45.220Z,23.00
2022-07-28T11:04:48.942Z,23.00
2022-07-28T11:09:52.740Z,23.20
2022-07-28T11:14:55.993Z,23.60
2022-07-28T11:20:24.605Z,24.40
2022-07-28T11:25:23.074Z,24.10
2022-07-28T11:30:32.789Z,23.80
2022-07-28T11:35:42.212Z,23.60
2022-07-28T11:40:47.167Z,23.40
2022-07-28T11:46:11.958Z,23.90
2022-07-28T11:51:16.495Z,24.60
2022-07-28T11:56:40.431Z,25.40
2022-07-28T12:01:53.806Z,25.50
2022-07-28T12:06:57.093Z,25.10
2022-07-28T12:12:00.740Z,24.70
2022-07-28T12:17:04.187Z,24.70
2022-07-28T12:22:15.672Z,24.70
2022-07-28T12:27:29.151Z,25.00
2022-07-28T12:32:36.064Z,25.30
2022-07-28T12:37:39.634Z,25.30
2022-07-28T12:42:43.412Z,25.20
2022-07-28T12:47:46.636Z,25.30
2022-07-28T12:53:04.655Z,25.40
2022-07-28T12:58:21.639Z,25.80
2022-07-28T13:03:28.855Z,25.90
2022-07-28T13:08:46.721Z,26.10
2022-07-28T13:13:52.720Z,26.20
2022-07-28T13:19:01.567Z,26.00
2022-07-28T13:24:05.847Z,25.80
2022-07-28T13:29:12.560Z,26.00
2022-07-28T13:34:16.933Z,26.10
2022-07-28T13:39:20.592Z,26.60
2022-07-28T13:44:23.951Z,27.10
2022-07-28T13:49:28.587Z,27.10
2022-07-28T13:54:32.322Z,26.80
2022-07-28T13:59:37.730Z,26.30
2022-07-28T14:04:41.142Z,25.90
2022-07-28T14:09:51.050Z,25.80
2022-07-28T14:14:54.295Z,25.70
2022-07-28T14:19:58.717Z,26.00
2022-07-28T14:25:02.192Z,25.90
2022-07-28T14:30:06.735Z,25.70
2022-07-28T14:35:10.415Z,25.40
2022-07-28T14:40:16.147Z,25.70
2022-07-28T14:45:23.269Z,26.10
2022-07-28T14:50:27.000Z,26.60
2022-07-28T14:55:31.045Z,26.90
2022-07-28T15:00:34.179Z,27.00
2022-07-28T15:05:37.473Z,27.20
2022-07-28T15:10:40.764Z,27.20
2022-07-28T15:15:44.928Z,27.30
2022-07-28T15:20:51.885Z,27.30
2022-07-28T15:25:56.645Z,27.50
2022-07-28T15:31:17.718Z,27.80
2022-07-28T15:36:30.599Z,28.40
2022-07-28T15:41:34.219Z,28.50
2022-07-28T15:46:39.557Z,27.70
2022-07-28T15:51:46.254Z,27.20
2022-07-28T15:56:50.867Z,27.00
2022-07-28T16:01:54.979Z,27.00
2022-07-28T16:07:16.458Z,26.40
2022-07-28T16:12:21.401Z,25.50
2022-07-28T16:17:25.985Z,25.40
2022-07-28T16:22:29.368Z,25.50
2022-07-28T16:27:32.884Z,25.20
2022-07-28T16:32:35.869Z,25.40
2022-07-28T16:37:40.886Z,25.20
2022-07-28T16:42:45.012Z,25.50
2022-07-28T16:47:51.484Z,25.50
2022-07-28T16:52:56.288Z,25.50
2022-07-28T16:57:59.492Z,25.50
2022-07-28T17:03:02.824Z,25.30
2022-07-28T17:08:06.783Z,25.20
2022-07-28T17:13:13.094Z,25.20
2022-07-28T17:18:18.547Z,25.10
2022-07-28T17:23:21.804Z,25.00
2022-07-28T17:28:25.645Z,25.20
2022-07-28T17:33:29.526Z,25.10
2022-07-28T17:38:34.435Z,25.10
2022-07-28T17:43:45.383Z,25.10
2022-07-28T17:48:49.213Z,24.80
2022-07-28T17:53:52.297Z,24.50
2022-07-28T17:58:58.982Z,23.90
2022-07-28T18:04:02.216Z,23.40
2022-07-28T18:09:08.588Z,23.20
2022-07-28T18:14:11.994Z,23.10
2022-07-28T18:19:19.790Z,22.90
2022-07-28T18:24:23.065Z,22.50
2022-07-28T18:29:38.592Z,22.30
2022-07-28T18:34:42.569Z,22.00
2022-07-28T18:39:47.743Z,21.70
2022-07-28T18:44:52.246Z,21.30
2022-07-28T18:49:59.249Z,21.00
2022-07-28T18:55:02.984Z,20.80
2022-07-28T19:00:11.070Z,20.50
2022-07-28T19:05:15.005Z,20.20
2022-07-28T19:10:18.283Z,19.20
2022-07-28T19:15:21.555Z,18.70
2022-07-28T19:20:24.627Z,18.40
2022-07-28T19:25:30.605Z,18.30
2022-07-28T19:30:34.878Z,18.20
2022-07-28T19:35:38.738Z,18.20
2022-07-28T19:40:43.610Z,18.10
2022-07-28T19:45:47.375Z,18.00
2022-07-28T19:50:53.064Z,17.80
2022-07-28T19:55:57.777Z,17.70
2022-07-28T20:01:05.140Z,17.50
2022-07-28T20:06:10.500Z,17.30
2022-07-28T20:11:14.185Z,17.20
2022-07-28T20:16:18.627Z,17.10
2022-07-28T20:21:24.345Z,17.00
2022-07-28T20:26:28.713Z,16.90
2022-07-28T20:31:32.781Z,16.80
2022-07-28T20:36:36.356Z,16.60
2022-07-28T20:41:39.703Z,16.50
2022-07-28T20:46:48.711Z,16.40
2022-07-28T20:51:52.425Z,16.30
2022-07-28T20:56:56.336Z,16.20
2022-07-28T21:01:59.747Z,16.10
2022-07-28T21:07:04.144Z,16.00
2022-07-28T21:12:08.343Z,15.90
2022-07-28T21:17:11.954Z,15.80
2022-07-28T21:22:16.183Z,15.70
2022-07-28T21:27:20.585Z,15.70
2022-07-28T21:32:23.935Z,15.70
2022-07-28T21:37:27.246Z,15.70
2022-07-28T21:42:30.510Z,15.60
2022-07-28T21:47:34.166Z,15.50
2022-07-28T21:52:38.508Z,15.30
2022-07-28T21:57:42.189Z,15.20
2022-07-28T22:02:45.346Z,15.00
2022-07-28T22:08:01.262Z,14.90
2022-07-28T22:13:19.619Z,14.80
2022-07-28T22:18:22.621Z,14.70
2022-07-28T22:23:29.643Z,14.60
2022-07-28T22:28:33.225Z,14.50
2022-07-28T22:33:37.003Z,14.40
2022-07-28T22:38:40.486Z,14.40
2022-07-28T22:43:44.081Z,14.30
2022-07-28T22:48:47.441Z,14.20
2022-07-28T22:53:50.885Z,14.10
2022-07-28T22:58:54.083Z,14.10
2022-07-28T23:03:59.002Z,14.20
2022-07-28T23:09:02.987Z,14.10
2022-07-28T23:14:06.462Z,14.20
2022-07-28T23:19:09.673Z,14.10
2022-07-28T23:24:13.299Z,14.10
2022-07-28T23:29:16.514Z,14.00
2022-07-28T23:34:19.743Z,13.90
2022-07-28T23:39:23.065Z,13.90
2022-07-28T23:44:26.466Z,13.80
2022-07-28T23:49:29.803Z,13.70
2022-07-28T23:54:32.981Z,13.70
2022-07-28T23:59:36.284Z,13.70
